Time;durP1;ratioP1;P1;durP2;ratioP2;P2;SDS_P1;SDS_P2;PMS_P1;PMS_P2;Temp;Humidity;BMP_temperature;BMP_pressure;BME280_temperature;BME280_humidity;BME280_pressure;Samples;Min_cycle;Max_cycle;Signal;HPM_P1;HPM_P2
2022/01/12 00:00:55;;;;;;;14.80;11.07;;;;;;;-0.53;63.48;99794.47;5041954;28;20069;-81
2022/01/12 00:03:21;;;;;;;13.27;9.83;;;;;;;1.97;63.28;100272.16;5041679;28;20038;-80
2022/01/12 00:05:47;;;;;;;12.40;9.53;;;;;;;0.85;63.07;100093.34;5041871;28;20033;-81
2022/01/12 00:08:13;;;;;;;12.17;10.00;;;;;;;-1.23;62.84;99742.03;5042178;28;20018;-81
2022/01/12 00:10:39;;;;;;;12.50;9.50;;;;;;;-0.98;63.37;99786.16;5039260;28;20040;-81
2022/01/12 00:13:05;;;;;;;13.13;10.17;;;;;;;-0.97;62.91;99785.22;5035220;28;20459;-81
2022/01/12 00:15:31;;;;;;;11.80;10.10;;;;;;;-0.64;63.23;99826.28;5032733;28;20060;-81
2022/01/12 00:17:57;;;;;;;11.57;9.50;;;;;;;-0.44;63.13;99882.03;5036659;28;20855;-81
2022/01/12 00:20:22;;;;;;;12.60;10.13;;;;;;;-0.89;63.33;99795.91;5041630;28;20021;-80
2022/01/12 00:22:48;;;;;;;11.03;9.23;;;;;;;-0.60;62.67;99865.81;5085884;23;20045;-80
2022/01/12 04:21:24;;;;;;;12.90;9.93;;;;;;;-1.10;60.14;100140.16;6248499;22;20031;-82
2022/01/12 05:28:30;;;;;;;18.10;14.10;;;;;;;-1.39;60.53;100165.16;6248016;22;20006;-80
2022/01/12 06:59:33;;;;;;;24.50;17.23;;;;;;;-0.16;60.20;100406.09;6285042;22;20164;-83
2022/01/12 07:09:44;;;;;;;24.00;15.60;;;;;;;0.08;59.64;100450.59;6294532;22;20023;-80
2022/01/12 07:14:45;;;;;;;19.93;13.90;;;;;;;-1.39;59.54;100244.59;6281306;22;20216;-81
2022/01/12 07:17:12;;;;;;;19.57;14.37;;;;;;;-1.20;59.87;100275.50;6366500;22;20045;-81
2022/01/12 07:29:59;;;;;;;19.87;13.67;;;;;;;0.97;59.60;100620.34;6301009;22;19918;-81
2022/01/12 07:32:24;;;;;;;19.37;12.43;;;;;;;-1.41;58.87;100270.59;6336640;22;19990;-82
2022/01/12 07:34:50;;;;;;;19.00;13.13;;;;;;;0.20;59.40;100504.41;6337655;22;20062;-82
2022/01/12 07:39:58;;;;;;;20.98;13.63;;;;;;;-0.51;58.99;100485.94;6271375;22;20033;-81
2022/01/12 07:42:24;;;;;;;19.23;12.83;;;;;;;-1.61;59.12;100320.00;6306335;22;20003;-82
2022/01/12 07:44:50;;;;;;;18.70;13.53;;;;;;;-2.27;58.65;100224.28;6267848;22;20030;-81
2022/01/12 07:47:16;;;;;;;21.77;14.93;;;;;;;-0.66;58.57;100427.97;6336381;22;20070;-81
2022/01/12 07:49:41;;;;;;;25.77;18.13;;;;;;;-1.54;59.10;100330.88;6336737;22;19987;-81
2022/01/12 07:52:07;;;;;;;23.97;17.23;;;;;;;-1.61;58.71;100327.78;6335988;22;20035;-82
2022/01/12 07:54:33;;;;;;;21.67;15.40;;;;;;;-1.39;59.26;100343.03;6336804;22;19983;-81
2022/01/12 08:12:29;;;;;;;28.00;20.13;;;;;;;-1.45;58.85;100336.44;6256532;22;21097;-81
2022/01/12 08:14:55;;;;;;;27.53;19.50;;;;;;;-0.17;58.92;100513.44;6300069;22;20050;-81
2022/01/12 08:19:57;;;;;;;31.70;22.30;;;;;;;-1.22;58.85;100335.19;6294020;22;20015;-81
2022/01/12 09:08:56;;;;;;;14.83;10.90;;;;;;;-0.42;58.03;100443.09;6335388;22;19998;-82
2022/01/12 09:11:21;;;;;;;16.67;12.00;;;;;;;-1.00;58.13;100301.13;6365049;22;20014;-82
2022/01/12 09:13:47;;;;;;;17.20;12.13;;;;;;;-0.82;58.36;100364.06;6360280;22;20491;-81
2022/01/12 09:16:13;;;;;;;17.57;11.50;;;;;;;0.61;58.14;100530.56;6354504;22;20009;-81
2022/01/12 09:18:39;;;;;;;15.50;10.87;;;;;;;-0.37;58.43;100386.59;6353872;22;19998;-81
2022/01/12 09:21:06;;;;;;;16.03;11.90;;;;;;;0.27;58.00;100481.53;6355315;22;20002;-82
2022/01/12 09:23:32;;;;;;;16.00;11.57;;;;;;;0.63;57.75;100544.31;6354206;22;20004;-82
2022/01/12 09:25:57;;;;;;;16.57;12.10;;;;;;;0.28;57.71;100465.03;6355039;22;19999;-81
2022/01/12 09:28:23;;;;;;;18.40;12.77;;;;;;;0.47;58.01;100499.38;6354494;22;20018;-82
2022/01/12 09:30:48;;;;;;;21.27;13.20;;;;;;;1.02;58.18;100568.91;6353632;22;20005;-81
2022/01/12 09:33:14;;;;;;;22.97;15.30;;;;;;;0.97;58.24;100544.94;6355520;22;20005;-81
2022/01/12 09:35:40;;;;;;;18.73;12.70;;;;;;;-0.23;57.52;100396.16;6360148;22;19998;-82
2022/01/12 09:38:06;;;;;;;20.97;14.90;;;;;;;2.47;58.05;100803.00;6332548;22;20051;-82
2022/01/12 09:40:31;;;;;;;20.80;15.07;;;;;;;-0.13;57.44;100329.81;6337317;22;20010;-82
2022/01/12 09:43:02;;;;;;;20.10;14.20;;;;;;;-0.34;57.38;100327.56;6364048;22;19983;-82
2022/01/12 09:45:27;;;;;;;27.20;18.17;;;;;;;1.56;57.34;100587.28;6331771;22;20054;-82
2022/01/12 09:47:53;;;;;;;23.87;15.97;;;;;;;1.56;57.43;100628.94;6361250;22;19994;-82
2022/01/12 09:50:25;;;;;;;20.73;16.10;;;;;;;-0.59;57.53;100290.19;6360881;22;20001;-82
2022/01/12 09:53:29;;;;;;;17.30;12.55;;;;;;;2.52;57.29;100755.78;6359362;22;19994;-83
2022/01/12 09:59:40;;;;;;;15.80;11.50;;;;;;;-0.35;57.78;100309.50;6302842;22;20022;-82
2022/01/12 10:10:00;;;;;;;18.43;11.27;;;;;;;-0.07;57.05;100332.91;6166213;22;20212;-81
2022/01/12 10:15:11;;;;;;;15.33;11.73;;;;;;;0.32;56.23;100354.81;6295462;22;20005;-82
2022/01/12 10:31:00;;;;;;;11.67;8.50;;;;;;;1.38;53.91;100369.84;6324544;22;20041;-86
2022/01/12 10:33:30;;;;;;;9.27;7.60;;;;;;;2.43;53.01;100556.50;6332154;22;20003;-80
2022/01/12 10:35:59;;;;;;;12.83;9.97;;;;;;;2.32;53.66;100539.91;6303779;22;19999;-83
2022/01/12 10:38:26;;;;;;;13.90;9.87;;;;;;;1.12;52.96;100353.31;6331026;22;20003;-82
2022/01/12 10:40:54;;;;;;;10.80;8.00;;;;;;;1.04;52.08;100381.56;6319067;22;20018;-81
2022/01/12 10:43:29;;;;;;;12.30;9.17;;;;;;;3.36;50.94;100724.22;6330932;22;20011;-81
2022/01/12 10:45:55;;;;;;;11.57;7.83;;;;;;;3.03;51.55;100800.34;6334708;22;20034;-81
2022/01/12 10:48:23;;;;;;;16.33;11.30;;;;;;;0.38;52.01;100372.63;6309819;22;20012;-81
2022/01/12 10:50:57;;;;;;;13.17;9.47;;;;;;;-0.24;51.43;100296.72;6305788;22;19987;-81
2022/01/12 10:56:14;;;;;;;12.50;8.50;;;;;;;1.40;51.45;100537.09;6254807;22;20717;-83
2022/01/12 10:58:47;;;;;;;9.67;7.33;;;;;;;-0.21;49.98;100347.63;6298866;22;20003;31
2022/01/12 11:01:14;;;;;;;9.67;7.17;;;;;;;-0.32;51.46;100338.69;6212025;23;20044;-81
2022/01/12 11:03:42;;;;;;;10.73;7.70;;;;;;;0.66;51.68;100477.50;6198176;22;20023;-84
2022/01/12 11:06:09;;;;;;;10.93;7.93;;;;;;;0.35;51.42;100470.69;6236806;22;20055;-80
2022/01/12 11:08:37;;;;;;;10.90;8.07;;;;;;;-0.44;51.89;100393.88;6303832;22;20464;-81
2022/01/12 11:11:03;;;;;;;10.10;7.57;;;;;;;-0.99;51.79;100230.22;6332478;22;19979;-80
2022/01/12 11:13:31;;;;;;;11.97;8.60;;;;;;;1.48;52.06;100675.38;6336734;22;20035;-81
2022/01/12 11:26:28;;;;;;;12.10;8.63;;;;;;;-0.84;51.92;100303.69;6284068;22;19899;-81
2022/01/12 11:31:32;;;;;;;9.87;7.87;;;;;;;0.04;52.07;100462.09;6290194;22;20027;-81
2022/01/12 11:33:58;;;;;;;12.13;8.10;;;;;;;0.93;52.10;100548.66;6330130;22;20011;-80
2022/01/12 11:36:34;;;;;;;12.13;8.70;;;;;;;2.09;51.42;100768.00;6292470;22;20025;-80
2022/01/12 11:39:14;;;;;;;8.70;7.57;;;;;;;1.68;50.81;100676.81;6325378;22;20524;-80
2022/01/12 11:41:43;;;;;;;10.60;7.40;;;;;;;0.34;51.70;100495.81;6329109;22;19979;-81
2022/01/12 11:44:10;;;;;;;11.33;8.63;;;;;;;2.04;51.88;100718.81;6332034;22;19994;-81
2022/01/12 11:46:51;;;;;;;10.07;7.97;;;;;;;1.80;52.05;100694.28;6305338;22;20007;-81
2022/01/12 11:49:44;;;;;;;12.60;9.13;;;;;;;2.27;51.45;100733.03;6300098;22;20047;-81
2022/01/12 11:52:21;;;;;;;10.37;8.27;;;;;;;-0.26;51.54;100344.44;6327578;22;20063;-81
2022/01/12 11:54:47;;;;;;;11.13;7.53;;;;;;;-0.17;51.76;100341.31;6324377;22;19995;-80
2022/01/12 11:57:20;;;;;;;11.60;8.13;;;;;;;-0.51;51.96;100286.22;6292359;22;20019;-80
2022/01/12 11:59:56;;;;;;;13.20;8.93;;;;;;;2.33;51.66;100730.03;6292323;22;20003;-80
2022/01/12 12:02:42;;;;;;;13.27;8.57;;;;;;;0.31;51.53;100423.28;6319830;22;19995;-81
2022/01/12 12:05:15;;;;;;;12.43;8.50;;;;;;;2.34;52.12;100736.94;6319699;22;20345;-80
2022/01/12 12:07:55;;;;;;;14.10;9.30;;;;;;;1.15;51.90;100582.00;6294353;22;19999;-80
2022/01/12 12:10:26;;;;;;;10.10;7.40;;;;;;;2.38;50.55;100745.41;6292735;22;20003;-80
2022/01/12 12:12:53;;;;;;;10.33;8.07;;;;;;;2.41;50.96;100737.38;6320063;22;20022;-80
2022/01/12 12:15:19;;;;;;;11.27;8.63;;;;;;;2.14;50.68;100713.88;6290795;22;20003;-80
2022/01/12 12:17:45;;;;;;;10.43;8.07;;;;;;;1.93;50.74;100682.16;6317550;22;20030;-80
2022/01/12 12:20:13;;;;;;;9.93;8.00;;;;;;;1.95;51.02;100697.72;6319149;22;20055;-80
2022/01/12 12:22:41;;;;;;;9.10;7.93;;;;;;;2.23;50.55;100752.41;6290904;22;20018;-81
2022/01/12 12:25:13;;;;;;;11.50;8.77;;;;;;;1.95;49.98;100695.09;6320922;22;19995;-80
2022/01/12 12:27:41;;;;;;;10.88;8.13;;;;;;;1.48;50.98;100706.59;6291814;22;20011;-80
2022/01/12 12:30:10;;;;;;;13.17;8.00;;;;;;;1.91;50.44;100733.53;6318254;22;19991;-80
2022/01/12 12:32:48;;;;;;;11.67;8.60;;;;;;;1.90;49.90;100755.28;6320712;22;19999;-81
2022/01/12 12:35:17;;;;;;;14.17;10.10;;;;;;;1.75;50.50;100704.97;6321859;22;19995;-81
2022/01/12 12:37:52;;;;;;;11.70;8.60;;;;;;;1.93;50.21;100765.50;6321339;22;20019;-81
2022/01/12 12:40:29;;;;;;;9.53;7.30;;;;;;;1.34;50.20;100667.56;6319811;22;20433;-80
2022/01/12 12:43:17;;;;;;;9.43;7.17;;;;;;;1.56;49.15;100709.63;6323171;22;20079;-81
2022/01/12 12:45:57;;;;;;;10.23;7.90;;;;;;;1.81;49.61;100756.69;6297713;22;20005;-81
2022/01/12 12:48:25;;;;;;;13.40;9.27;;;;;;;1.42;49.68;100699.16;6325892;22;19995;-81
2022/01/12 12:50:59;;;;;;;11.97;8.97;;;;;;;1.89;50.16;100777.88;6302026;22;19995;-81
2022/01/12 12:53:33;;;;;;;13.70;9.80;;;;;;;1.25;50.02;100663.75;6298333;22;20005;-81
2022/01/12 12:55:59;;;;;;;14.63;10.57;;;;;;;1.74;50.46;100720.69;6293397;22;20455;-80
2022/01/12 12:58:26;;;;;;;11.57;8.87;;;;;;;1.89;50.08;100764.84;6293228;22;20449;-80
2022/01/12 13:00:52;;;;;;;11.13;8.50;;;;;;;1.89;50.09;100745.78;6315325;22;19999;-80
2022/01/12 13:03:18;;;;;;;10.80;8.87;;;;;;;1.72;50.12;100731.19;6316197;22;19999;-80
2022/01/12 13:05:44;;;;;;;11.13;9.10;;;;;;;1.71;50.75;100697.44;6320935;22;20006;-80
2022/01/12 13:08:11;;;;;;;14.80;10.37;;;;;;;2.16;50.38;100770.16;6320194;22;19995;-80
2022/01/12 13:10:38;;;;;;;13.67;10.10;;;;;;;2.12;51.34;100773.03;6292328;22;19999;-80
2022/01/12 13:13:09;;;;;;;15.27;10.80;;;;;;;1.94;50.87;100735.09;6314830;22;20006;-78
2022/01/12 13:15:34;;;;;;;13.40;9.35;;;;;;;2.40;50.36;100777.41;6314259;22;19999;-80
2022/01/12 13:18:04;;;;;;;12.20;8.53;;;;;;;2.35;49.89;100782.91;6288890;22;20082;-80
2022/01/12 13:23:21;;;;;;;16.00;12.50;;;;;;;2.39;50.04;100784.38;6309065;22;20368;-79
2022/01/12 13:25:49;;;;;;;19.33;12.80;;;;;;;2.37;50.11;100790.63;6309584;22;20014;-78
2022/01/12 13:28:18;;;;;;;16.40;11.90;;;;;;;1.86;50.09;100746.81;6307704;22;20007;-78
2022/01/12 13:30:53;;;;;;;11.67;9.43;;;;;;;2.21;50.11;100793.31;6310678;22;20017;-78
2022/01/12 13:33:38;;;;;;;14.37;10.50;;;;;;;2.12;50.51;100788.66;6311703;22;20009;-78
2022/01/12 13:36:15;;;;;;;12.83;8.90;;;;;;;2.10;51.17;100798.34;6311539;22;19995;-78
2022/01/12 13:38:42;;;;;;;12.57;8.97;;;;;;;2.14;50.47;100797.22;6310230;22;20022;-78
2022/01/12 13:41:10;;;;;;;10.87;8.40;;;;;;;1.63;49.37;100749.13;6310839;22;19999;-78
2022/01/12 13:43:37;;;;;;;11.77;9.07;;;;;;;1.85;50.47;100796.38;6310909;22;19999;-78
2022/01/12 13:46:11;;;;;;;12.20;9.97;;;;;;;1.80;50.14;100798.44;6309315;22;19996;-78
2022/01/12 13:48:40;;;;;;;14.47;9.13;;;;;;;1.64;50.28;100788.09;6285055;22;19999;-79
2022/01/12 13:51:06;;;;;;;13.00;9.10;;;;;;;1.06;50.31;100690.00;6282824;22;20006;-79
2022/01/12 13:53:40;;;;;;;12.10;8.67;;;;;;;1.74;50.43;100799.63;6313791;22;19992;-79
2022/01/12 13:56:08;;;;;;;11.20;8.80;;;;;;;1.78;50.78;100808.94;6310273;22;19995;-79
2022/01/12 13:58:38;;;;;;;12.33;8.97;;;;;;;1.23;50.65;100731.47;6281906;22;20475;-80
2022/01/12 14:01:10;;;;;;;14.43;10.10;;;;;;;1.23;51.37;100726.28;6307329;22;20479;-79
2022/01/12 14:03:46;;;;;;;11.40;8.63;;;;;;;1.53;51.24;100759.25;6306837;22;19995;-79
2022/01/12 14:06:25;;;;;;;16.83;10.10;;;;;;;1.38;49.87;100737.53;6280676;22;20010;-78
2022/01/12 14:08:55;;;;;;;12.13;9.20;;;;;;;1.76;50.06;100808.19;6280593;22;20049;-78
2022/01/12 14:11:21;;;;;;;17.43;8.63;;;;;;;1.62;50.33;100821.19;6306570;22;19995;-78
2022/01/12 14:13:47;;;;;;;15.17;9.70;;;;;;;1.25;51.04;100773.84;6306580;22;20126;-79
2022/01/12 14:16:14;;;;;;;15.13;9.60;;;;;;;1.17;50.83;100731.84;6306809;22;20502;-78
2022/01/12 14:18:40;;;;;;;16.33;9.63;;;;;;;1.68;50.67;100800.00;6279462;22;20009;-78
2022/01/12 14:21:13;;;;;;;19.30;9.63;;;;;;;1.37;51.05;100779.28;6278851;22;20002;-78
2022/01/12 14:23:39;;;;;;;11.70;8.37;;;;;;;1.20;50.61;100759.44;6310489;22;20000;-82
2022/01/12 14:26:05;;;;;;;12.03;9.57;;;;;;;1.43;50.54;100799.72;6320439;22;20002;-83
2022/01/12 14:28:32;;;;;;;14.77;9.53;;;;;;;1.40;50.36;100841.53;6291427;22;19999;-83
2022/01/12 14:30:58;;;;;;;12.67;9.33;;;;;;;1.12;50.85;100801.50;6323292;22;19999;-83
2022/01/12 14:33:23;;;;;;;13.70;9.97;;;;;;;1.24;51.11;100812.97;6321608;22;20005;-83
2022/01/12 14:35:50;;;;;;;30.77;10.30;;;;;;;0.73;50.92;100739.53;6321595;22;20045;-83
2022/01/12 14:38:15;;;;;;;16.07;9.93;;;;;;;0.62;50.99;100734.94;6318753;22;19995;-82
2022/01/12 14:40:42;;;;;;;21.93;11.10;;;;;;;0.54;51.46;100739.75;6320631;22;19995;-83
2022/01/12 14:43:08;;;;;;;12.63;9.10;;;;;;;-0.08;50.85;100649.66;6322480;22;19995;-83
2022/01/12 14:45:39;;;;;;;16.03;10.50;;;;;;;-0.12;51.42;100693.13;6323089;22;19999;-83
2022/01/12 14:48:16;;;;;;;16.87;11.27;;;;;;;0.96;51.37;100847.47;6326548;22;19999;-82
2022/01/12 14:50:43;;;;;;;13.60;10.70;;;;;;;0.59;51.56;100791.47;6334447;22;19986;-82
2022/01/12 14:53:09;;;;;;;15.90;10.60;;;;;;;0.87;51.44;100846.22;6306287;22;20026;-83
2022/01/12 14:55:35;;;;;;;18.70;12.83;;;;;;;0.22;51.00;100738.06;6325807;22;19992;-83
2022/01/12 14:58:01;;;;;;;14.10;10.63;;;;;;;0.78;51.14;100843.31;6298349;22;20010;-83
2022/01/12 15:00:28;;;;;;;15.50;10.77;;;;;;;0.60;51.97;100803.53;6295661;22;20033;-83
2022/01/12 15:03:00;;;;;;;16.27;11.00;;;;;;;0.99;51.37;100849.91;6299194;22;19995;-84
2022/01/12 15:05:27;;;;;;;14.85;10.60;;;;;;;0.99;51.84;100854.28;6301969;22;20514;-84
2022/01/12 15:07:53;;;;;;;15.87;12.27;;;;;;;0.82;51.84;100837.00;6300290;22;20006;-83
2022/01/12 15:10:20;;;;;;;15.00;11.87;;;;;;;0.70;52.04;100803.84;6329218;22;20010;-84
2022/01/12 15:12:49;;;;;;;17.03;12.00;;;;;;;1.05;52.24;100867.78;6304148;22;20026;-83
2022/01/12 15:15:15;;;;;;;16.60;12.07;;;;;;;1.10;52.21;100868.38;6296403;22;19999;-83
2022/01/12 15:17:41;;;;;;;12.30;9.13;;;;;;;0.79;52.11;100825.03;6325420;22;20356;-83
2022/01/12 15:20:09;;;;;;;19.30;11.67;;;;;;;0.84;52.10;100838.59;6320623;22;20000;-82
2022/01/12 15:22:37;;;;;;;15.53;10.97;;;;;;;0.64;51.68;100821.47;6303995;22;20018;-82
2022/01/12 15:25:03;;;;;;;19.00;12.83;;;;;;;0.94;52.06;100883.13;6323598;22;20000;-83
2022/01/12 15:27:28;;;;;;;35.40;23.10;;;;;;;0.82;52.45;100889.84;6323771;22;20532;-82
2022/01/12 15:29:55;;;;;;;21.27;13.83;;;;;;;1.03;52.37;100893.03;6300778;22;19992;-82
2022/01/12 15:32:20;;;;;;;24.40;13.23;;;;;;;0.98;51.79;100894.22;6302550;22;20003;-82
2022/01/12 15:34:46;;;;;;;20.73;13.03;;;;;;;0.76;52.06;100863.34;6327544;22;20017;-83
2022/01/12 15:37:11;;;;;;;21.13;14.07;;;;;;;0.32;51.74;100824.97;6325333;22;20006;-82
2022/01/12 15:39:37;;;;;;;22.70;14.80;;;;;;;0.34;52.14;100819.69;6299525;22;20004;-82
2022/01/12 15:42:02;;;;;;;18.23;13.33;;;;;;;0.51;52.37;100846.44;6302274;22;20030;-83
2022/01/12 15:44:30;;;;;;;23.27;15.33;;;;;;;0.17;52.28;100774.66;6326370;22;20002;-82
2022/01/12 15:46:56;;;;;;;19.53;13.50;;;;;;;0.23;51.82;100804.69;6328550;22;19999;-83
2022/01/12 15:49:21;;;;;;;16.57;10.93;;;;;;;-0.66;51.91;100658.78;6279750;22;20074;-83
2022/01/12 15:51:47;;;;;;;16.93;11.17;;;;;;;0.08;51.22;100779.53;6305413;22;19995;-83
2022/01/12 15:54:13;;;;;;;15.70;10.93;;;;;;;0.66;51.61;100895.91;6279803;22;20056;-79
2022/01/12 15:56:38;;;;;;;20.20;10.63;;;;;;;-0.05;51.67;100785.31;6306396;22;20405;-78
2022/01/12 15:59:04;;;;;;;15.40;11.23;;;;;;;0.47;51.69;100883.06;6305221;22;20360;-78
2022/01/12 16:01:29;;;;;;;16.17;11.30;;;;;;;0.56;51.90;100905.97;6276930;22;20508;-78
2022/01/12 16:03:56;;;;;;;18.10;12.73;;;;;;;0.42;51.84;100893.69;6306419;22;20006;-78
2022/01/12 16:06:23;;;;;;;23.63;13.63;;;;;;;0.50;52.11;100917.53;6308112;22;20002;-78
2022/01/12 16:08:49;;;;;;;17.03;12.03;;;;;;;0.40;52.00;100913.72;6310950;22;20030;-78
2022/01/12 16:11:16;;;;;;;17.90;12.50;;;;;;;0.45;51.89;100916.09;6324361;22;19995;-78
2022/01/12 16:13:43;;;;;;;16.67;11.83;;;;;;;0.43;51.88;100920.53;6325667;22;20006;-78
2022/01/12 16:16:09;;;;;;;16.83;10.87;;;;;;;0.26;52.01;100904.03;6327845;22;20000;-78
2022/01/12 16:18:36;;;;;;;15.47;10.90;;;;;;;0.45;51.89;100927.31;6315873;22;20082;-79
2022/01/12 16:21:03;;;;;;;17.00;11.87;;;;;;;-0.16;51.84;100844.75;6306856;22;20029;-79
2022/01/12 16:23:30;;;;;;;17.50;11.37;;;;;;;0.39;51.91;100932.00;6306520;22;19999;-76
2022/01/12 16:26:00;;;;;;;17.17;11.57;;;;;;;0.34;51.52;100939.19;6305676;22;20006;-77
2022/01/12 16:28:27;;;;;;;18.10;12.10;;;;;;;-0.35;51.71;100842.25;6306928;22;19998;-76
2022/01/12 16:30:55;;;;;;;17.00;11.80;;;;;;;0.01;51.57;100902.78;6306600;22;20003;-77
2022/01/12 16:33:23;;;;;;;18.23;13.20;;;;;;;0.31;51.60;100953.16;6305467;22;19999;-77
2022/01/12 16:35:49;;;;;;;23.10;15.20;;;;;;;0.29;51.38;100958.44;6306089;22;20010;-77
2022/01/12 16:38:19;;;;;;;19.27;13.23;;;;;;;-0.49;51.53;100829.13;6306623;22;19999;-77
2022/01/12 16:40:46;;;;;;;19.87;12.77;;;;;;;0.24;51.61;100973.41;6306620;22;20079;-77
2022/01/12 16:43:12;;;;;;;16.53;11.50;;;;;;;0.27;51.67;100962.03;6306674;22;20005;-77
2022/01/12 16:45:38;;;;;;;23.60;14.50;;;;;;;0.28;51.61;100956.75;6306671;22;20066;-77
2022/01/12 16:48:05;;;;;;;22.87;14.37;;;;;;;0.36;51.67;100964.16;6306727;22;19991;-77
2022/01/12 16:50:30;;;;;;;19.70;13.13;;;;;;;-0.24;51.68;100885.81;6305497;22;19995;-77
2022/01/12 16:52:56;;;;;;;17.70;12.03;;;;;;;-0.25;51.55;100894.53;6306384;22;20002;-77
2022/01/12 16:55:22;;;;;;;19.57;12.03;;;;;;;-0.33;51.91;100914.81;6306121;22;20002;-76
2022/01/12 16:57:50;;;;;;;15.53;10.70;;;;;;;-0.29;51.96;100913.75;6278995;22;20003;-77
2022/01/12 17:00:16;;;;;;;18.30;12.37;;;;;;;0.17;51.53;100971.19;6306152;22;20003;-77
2022/01/12 17:02:42;;;;;;;19.87;12.83;;;;;;;-0.06;52.15;100954.97;6306628;22;20070;-77
2022/01/12 17:05:08;;;;;;;21.53;14.30;;;;;;;-0.27;51.75;100917.13;6306456;22;20408;-77
2022/01/12 17:07:33;;;;;;;17.33;12.13;;;;;;;-0.53;51.60;100870.84;6278878;22;20005;-77
2022/01/12 17:09:59;;;;;;;18.47;12.77;;;;;;;0.07;51.56;100982.97;6306290;22;20070;-77
2022/01/12 17:12:24;;;;;;;19.10;12.87;;;;;;;-0.03;51.56;100970.41;6277927;22;20348;-77
2022/01/12 17:14:50;;;;;;;19.70;13.27;;;;;;;-0.29;51.46;100928.47;6304163;22;20002;-77
2022/01/12 17:17:33;;;;;;;18.93;13.40;;;;;;;0.06;50.40;100997.72;6304459;22;20010;-77
2022/01/12 17:20:00;;;;;;;20.20;13.20;;;;;;;-0.29;51.35;100978.63;6303902;22;20467;-77
2022/01/12 17:22:26;;;;;;;18.07;12.60;;;;;;;-0.12;51.43;100970.03;6306009;22;19995;-77
2022/01/12 17:25:11;;;;;;;20.63;14.87;;;;;;;0.09;51.12;101009.69;6307363;22;20082;-77
2022/01/12 17:27:37;;;;;;;16.73;11.80;;;;;;;0.17;51.74;101005.81;6306999;22;20385;-77
2022/01/12 17:30:05;;;;;;;17.83;12.60;;;;;;;0.16;50.92;101005.88;6307558;22;20074;-76
2022/01/12 17:32:31;;;;;;;19.33;12.57;;;;;;;0.06;51.18;101010.69;6280112;22;20014;-76
2022/01/12 17:34:57;;;;;;;17.73;12.73;;;;;;;-0.20;51.35;100974.75;6280448;22;19995;-77
2022/01/12 17:37:23;;;;;;;14.60;11.07;;;;;;;-0.74;51.25;100896.06;6306176;22;19995;-77
2022/01/12 17:39:49;;;;;;;14.87;9.90;;;;;;;-0.04;51.37;101027.59;6305905;22;20003;-77
2022/01/12 17:42:18;;;;;;;14.10;10.33;;;;;;;-0.24;51.12;101002.59;6305912;22;20330;-77
2022/01/12 17:44:48;;;;;;;18.83;13.00;;;;;;;-0.58;51.72;100941.09;6278561;22;20011;-77
2022/01/12 17:47:16;;;;;;;16.20;11.73;;;;;;;0.02;51.38;101042.06;6306066;22;20002;-77
2022/01/12 17:52:28;;;;;;;17.00;12.37;;;;;;;0.11;51.23;101052.00;6306175;22;20010;-77
2022/01/12 17:54:55;;;;;;;14.53;10.87;;;;;;;0.06;51.43;101048.81;6306120;22;20018;-77
2022/01/12 17:57:21;;;;;;;14.53;10.47;;;;;;;-0.23;51.09;101045.81;6306178;22;21063;-77
2022/01/12 17:59:46;;;;;;;14.23;10.30;;;;;;;-0.08;51.26;101052.03;6306141;22;20003;-77
2022/01/12 18:02:12;;;;;;;17.17;10.23;;;;;;;-0.60;50.91;100996.56;6306245;22;20003;-77
2022/01/12 18:04:37;;;;;;;16.57;11.07;;;;;;;-0.25;51.22;101036.41;6306244;22;20125;-77
2022/01/12 18:07:03;;;;;;;13.33;9.50;;;;;;;-0.12;50.94;101045.31;6305836;22;20344;-77
2022/01/12 18:09:29;;;;;;;17.07;10.43;;;;;;;0.05;51.21;101073.09;6305511;22;19995;-77
2022/01/12 18:11:54;;;;;;;17.13;11.90;;;;;;;-0.04;50.89;101044.03;6306206;22;20003;-77
2022/01/12 18:14:20;;;;;;;17.83;11.93;;;;;;;-0.12;51.04;101038.34;6306447;22;19996;-77
2022/01/12 18:16:50;;;;;;;17.00;11.70;;;;;;;-0.20;50.96;101026.66;6278414;22;20508;-77
2022/01/12 18:21:51;;;;;;;22.77;14.87;;;;;;;-0.29;51.23;101011.53;6307580;22;20065;-77
2022/01/12 18:24:17;;;;;;;20.77;15.20;;;;;;;0.08;50.95;101075.53;6306724;22;19999;-77
2022/01/12 18:26:43;;;;;;;22.47;15.60;;;;;;;-0.26;50.89;101035.59;6279454;22;20002;-77
2022/01/12 18:29:10;;;;;;;23.00;14.87;;;;;;;-0.46;51.18;101020.09;6306757;22;20070;-77
2022/01/12 18:31:36;;;;;;;21.47;13.67;;;;;;;-0.11;51.10;101086.75;6306511;22;20006;-76
2022/01/12 18:34:01;;;;;;;21.67;15.17;;;;;;;-0.11;51.31;101078.97;6306601;22;19995;-77
2022/01/12 18:36:27;;;;;;;22.50;15.40;;;;;;;-0.45;51.12;101032.16;6306051;22;20014;-76
2022/01/12 18:38:52;;;;;;;23.17;16.03;;;;;;;-0.15;50.92;101090.41;6305773;22;20031;-77
2022/01/12 18:41:18;;;;;;;23.20;16.07;;;;;;;-0.55;51.44;101023.13;6305503;22;20003;-77
2022/01/12 18:43:43;;;;;;;24.60;17.67;;;;;;;-0.15;51.46;101094.78;6305780;22;20445;-77
2022/01/12 18:46:09;;;;;;;25.63;17.77;;;;;;;-0.55;51.48;101026.56;6305648;22;20052;-77
2022/01/12 18:48:36;;;;;;;25.97;16.83;;;;;;;-0.09;51.25;101095.31;6306056;22;20024;-77
2022/01/12 18:51:01;;;;;;;27.93;19.47;;;;;;;-0.06;51.33;101097.78;6306142;22;19999;-77
2022/01/12 18:53:27;;;;;;;31.63;18.97;;;;;;;-0.20;51.50;101070.78;6306706;22;20010;-77
2022/01/12 18:55:53;;;;;;;29.70;20.23;;;;;;;-0.21;51.08;101074.28;6306442;22;20129;-76
2022/01/12 18:58:19;;;;;;;33.53;21.77;;;;;;;-0.01;51.22;101115.72;6305862;22;20081;-77
2022/01/12 19:00:45;;;;;;;31.43;21.50;;;;;;;-0.14;51.32;101096.44;6278702;22;20470;-77
2022/01/12 19:03:11;;;;;;;30.10;20.43;;;;;;;-0.33;51.34;101081.75;6305655;22;20074;-77
2022/01/12 19:05:37;;;;;;;32.40;21.97;;;;;;;-0.21;51.46;101106.28;6306953;22;20026;-77
2022/01/12 19:08:03;;;;;;;32.40;21.73;;;;;;;-0.73;51.47;101020.47;6306565;22;19992;-76
2022/01/12 19:10:28;;;;;;;32.57;21.70;;;;;;;-0.56;51.81;101063.78;6306603;22;20003;-77
2022/01/12 19:12:55;;;;;;;28.30;19.33;;;;;;;-0.62;51.68;101074.44;6306760;22;20372;-77
2022/01/12 19:15:21;;;;;;;29.93;19.23;;;;;;;-0.27;51.50;101111.75;6306836;22;19996;-76
2022/01/12 19:17:46;;;;;;;26.87;18.63;;;;;;;-0.38;51.46;101103.63;6306804;22;20077;-76
2022/01/12 19:20:12;;;;;;;27.43;18.87;;;;;;;-0.55;51.73;101083.63;6306694;22;20356;-77
2022/01/12 19:22:38;;;;;;;28.17;18.70;;;;;;;-0.41;51.56;101090.78;6308406;22;19995;-77
2022/01/12 19:25:05;;;;;;;30.60;20.83;;;;;;;-0.13;51.26;101140.50;6310425;22;20003;-78
2022/01/12 19:27:31;;;;;;;26.93;17.37;;;;;;;-0.27;51.28;101114.34;6310589;22;19995;-78
2022/01/12 19:29:56;;;;;;;21.77;15.23;;;;;;;-0.45;51.36;101084.06;6311431;22;19995;-78
2022/01/12 19:32:22;;;;;;;23.83;15.33;;;;;;;-0.13;51.46;101137.91;6310144;22;20070;-78
2022/01/12 19:34:49;;;;;;;22.17;14.60;;;;;;;-0.13;51.71;101139.66;6310280;22;20001;-78
2022/01/12 19:37:16;;;;;;;17.00;12.20;;;;;;;-0.56;51.83;101083.72;6310185;22;19999;-78
2022/01/12 19:39:41;;;;;;;18.07;12.30;;;;;;;-0.18;51.73;101142.47;6309952;22;20010;-78
2022/01/12 19:42:07;;;;;;;19.87;13.50;;;;;;;-0.53;51.75;101099.97;6311152;22;20353;-79
2022/01/12 19:44:35;;;;;;;21.43;14.10;;;;;;;-0.70;51.88;101064.44;6311892;22;20074;-78
2022/01/12 19:47:04;;;;;;;19.93;12.90;;;;;;;-0.71;51.65;101075.72;6283632;22;19995;-78
2022/01/12 19:49:30;;;;;;;20.40;14.03;;;;;;;-0.24;51.97;101144.50;6284193;22;19991;-78
2022/01/12 19:52:02;;;;;;;23.17;15.73;;;;;;;-0.57;51.59;101095.00;6309256;22;19999;-78
2022/01/12 19:55:00;;;;;;;26.95;18.35;;;;;;;-0.37;51.60;101152.84;6308080;22;19995;-78
2022/01/12 19:57:37;;;;;;;30.13;18.93;;;;;;;-0.33;51.63;101154.41;6308190;22;19995;-78
2022/01/12 20:00:07;;;;;;;28.43;19.57;;;;;;;-0.74;52.13;101075.84;6308144;22;20074;-78
2022/01/12 20:02:52;;;;;;;34.23;20.97;;;;;;;-0.32;51.93;101139.69;6308373;22;20018;-79
2022/01/12 20:05:18;;;;;;;26.83;16.53;;;;;;;-0.44;52.00;101135.03;6308539;22;20018;-79
2022/01/12 20:07:43;;;;;;;29.47;17.90;;;;;;;-0.70;52.05;101071.38;6280371;22;19999;-78
2022/01/12 20:10:10;;;;;;;25.60;17.60;;;;;;;-0.23;52.01;101153.97;6308915;22;19999;-78